createdAt,value
2019-05-09T00:02:33.879Z,29.37
2019-05-09T00:05:04.546Z,26.63
2019-05-09T00:07:35.036Z,24.93
2019-05-09T00:10:07.008Z,23.57
2019-05-09T00:12:37.654Z,25.30
2019-05-09T00:15:09.100Z,26.53
2019-05-09T00:17:39.736Z,24.07
2019-05-09T00:20:16.608Z,24.27
2019-05-09T00:22:47.186Z,22.43
2019-05-09T00:25:17.693Z,21.60
2019-05-09T00:27:48.248Z,20.93
2019-05-09T00:30:22.671Z,22.80
2019-05-09T00:32:53.438Z,22.33
2019-05-09T00:35:30.032Z,22.07
2019-05-09T00:38:05.366Z,22.50
2019-05-09T00:40:35.871Z,21.43
2019-05-09T00:43:06.999Z,19.25
2019-05-09T00:46:04.073Z,22.10
2019-05-09T00:48:43.969Z,19.50
2019-05-09T00:51:14.530Z,19.60
2019-05-09T00:53:44.957Z,17.20
2019-05-09T00:58:44.390Z,17.70
2019-05-09T01:01:15.359Z,18.60
2019-05-09T01:03:45.969Z,17.82
2019-05-09T01:06:16.519Z,17.45
2019-05-09T01:08:47.032Z,19.80
2019-05-09T01:11:17.547Z,17.73
2019-05-09T01:13:48.580Z,16.33
2019-05-09T01:16:19.639Z,19.47
2019-05-09T01:18:50.288Z,19.50
2019-05-09T01:21:21.232Z,21.93
2019-05-09T01:23:53.977Z,19.97
2019-05-09T01:28:47.699Z,18.60
2019-05-09T01:31:18.594Z,19.47
2019-05-09T01:34:00.318Z,20.60
2019-05-09T01:37:05.070Z,19.53
2019-05-09T01:39:36.753Z,21.63
2019-05-09T01:42:07.812Z,20.00
2019-05-09T01:44:38.595Z,22.63
2019-05-09T01:49:49.683Z,20.07
2019-05-09T01:52:20.291Z,19.83
2019-05-09T01:54:50.810Z,19.97
2019-05-09T01:57:23.277Z,19.65
2019-05-09T01:59:53.509Z,21.70
2019-05-09T02:02:24.220Z,21.67
2019-05-09T02:04:54.872Z,23.40
2019-05-09T02:07:25.398Z,23.03
2019-05-09T02:09:55.929Z,27.40
2019-05-09T02:12:33.781Z,25.37
2019-05-09T02:15:18.058Z,26.67
2019-05-09T02:18:08.376Z,25.07
2019-05-09T02:20:38.918Z,24.93
2019-05-09T02:23:09.727Z,27.53
2019-05-09T02:25:40.413Z,28.70
2019-05-09T02:28:11.111Z,27.63
2019-05-09T02:30:44.925Z,27.57
2019-05-09T02:33:14.752Z,28.47
2019-05-09T02:35:52.829Z,32.57
2019-05-09T02:38:19.946Z,28.43
2019-05-09T02:40:50.143Z,28.03
2019-05-09T02:43:20.932Z,29.57
2019-05-09T02:46:13.303Z,32.80
2019-05-09T02:48:44.279Z,32.43
2019-05-09T02:51:18.175Z,31.37
2019-05-09T02:53:48.561Z,34.90
2019-05-09T02:56:19.474Z,35.73
2019-05-09T02:59:00.451Z,34.07
2019-05-09T03:01:44.182Z,38.03
2019-05-09T03:04:14.956Z,36.47
2019-05-09T03:06:48.895Z,35.43
2019-05-09T03:09:18.961Z,41.40
2019-05-09T03:11:49.920Z,43.87
2019-05-09T03:14:20.762Z,37.70
2019-05-09T03:16:51.429Z,43.17
2019-05-09T03:19:21.964Z,42.95
2019-05-09T03:21:58.433Z,43.43
2019-05-09T03:24:29.392Z,43.73
2019-05-09T03:27:04.324Z,46.23
2019-05-09T03:29:39.852Z,41.43
2019-05-09T03:32:10.498Z,41.43
2019-05-09T03:34:41.040Z,40.67
2019-05-09T03:37:11.888Z,43.50
2019-05-09T03:42:39.682Z,44.30
2019-05-09T03:44:58.199Z,41.20
2019-05-09T03:47:34.378Z,41.00
2019-05-09T03:50:09.708Z,41.10
2019-05-09T03:52:40.370Z,40.10
2019-05-09T03:55:13.456Z,43.30
2019-05-09T03:57:49.227Z,38.63
2019-05-09T04:00:20.748Z,40.78
2019-05-09T04:02:51.458Z,40.23
2019-05-09T04:05:21.978Z,42.03
2019-05-09T04:07:52.614Z,43.53
2019-05-09T04:10:23.043Z,38.63
2019-05-09T04:12:56.597Z,36.10
2019-05-09T04:17:57.850Z,36.77
2019-05-09T04:20:28.338Z,37.80
2019-05-09T04:22:59.565Z,38.77
2019-05-09T04:25:32.577Z,40.20
2019-05-09T04:28:03.964Z,35.77
2019-05-09T04:30:34.579Z,35.90
2019-05-09T04:33:07.226Z,33.80
2019-05-09T04:35:38.271Z,34.80
2019-05-09T04:38:08.752Z,33.53
2019-05-09T04:40:44.716Z,29.77
2019-05-09T04:43:16.861Z,31.42
2019-05-09T04:45:48.964Z,29.10
2019-05-09T04:48:31.649Z,35.20
2019-05-09T04:51:03.725Z,26.73
2019-05-09T04:53:34.485Z,29.37
2019-05-09T04:56:27.978Z,26.73
2019-05-09T04:58:58.453Z,26.57
2019-05-09T05:01:44.512Z,26.37
2019-05-09T05:04:14.749Z,25.32
2019-05-09T05:06:44.914Z,22.17
2019-05-09T05:09:15.123Z,23.17
2019-05-09T05:11:47.111Z,22.80
2019-05-09T05:14:23.944Z,21.57
2019-05-09T05:16:58.256Z,20.47
2019-05-09T05:19:30.915Z,21.77
2019-05-09T05:22:07.420Z,21.57
2019-05-09T05:24:43.047Z,18.63
2019-05-09T05:27:13.334Z,18.57
2019-05-09T05:29:43.539Z,20.07
2019-05-09T05:32:19.766Z,17.30
2019-05-09T05:35:01.723Z,18.73
2019-05-09T05:37:32.086Z,19.33
2019-05-09T05:40:02.312Z,16.47
2019-05-09T05:42:32.514Z,18.10
2019-05-09T05:45:02.900Z,18.10
2019-05-09T05:47:48.546Z,18.00
2019-05-09T05:50:18.951Z,15.97
2019-05-09T05:52:49.176Z,14.17
2019-05-09T05:55:19.532Z,14.00
2019-05-09T05:57:49.664Z,14.17
2019-05-09T06:00:21.886Z,13.67
2019-05-09T06:02:52.146Z,19.37
2019-05-09T06:05:24.766Z,15.28
2019-05-09T06:07:57.457Z,13.97
2019-05-09T06:10:28.987Z,14.65
2019-05-09T06:12:59.102Z,12.37
2019-05-09T06:15:29.366Z,11.40
2019-05-09T06:17:59.554Z,12.27
2019-05-09T06:20:29.897Z,13.37
2019-05-09T06:23:00.255Z,11.37
2019-05-09T06:25:31.006Z,11.53
2019-05-09T06:28:01.251Z,16.40
2019-05-09T06:30:32.380Z,12.47
2019-05-09T06:33:05.101Z,12.07
2019-05-09T06:35:37.749Z,11.50
2019-05-09T06:38:07.925Z,12.00
2019-05-09T06:40:38.430Z,10.53
2019-05-09T06:43:18.687Z,9.23
2019-05-09T06:46:08.176Z,10.30
2019-05-09T06:48:38.656Z,11.40
2019-05-09T06:51:09.009Z,9.47
2019-05-09T06:53:39.300Z,9.28
2019-05-09T06:56:09.509Z,8.57
2019-05-09T06:58:40.047Z,7.97
2019-05-09T07:01:32.456Z,9.70
2019-05-09T07:04:09.137Z,8.23
2019-05-09T07:06:43.737Z,8.70
2019-05-09T07:09:21.264Z,6.90
2019-05-09T07:11:51.547Z,8.70
2019-05-09T07:14:32.288Z,11.53
2019-05-09T07:17:00.966Z,7.23
2019-05-09T07:19:31.308Z,7.10
2019-05-09T07:22:39.365Z,8.10
2019-05-09T07:25:43.954Z,6.63
2019-05-09T07:28:14.267Z,5.87
2019-05-09T07:31:03.738Z,7.97
2019-05-09T07:33:47.863Z,5.83
2019-05-09T07:36:18.862Z,6.47
2019-05-09T07:38:49.308Z,8.67
2019-05-09T07:41:19.517Z,7.93
2019-05-09T07:43:49.701Z,6.47
2019-05-09T07:46:28.646Z,6.35
2019-05-09T07:49:00.106Z,7.90
2019-05-09T07:51:30.434Z,8.20
2019-05-09T07:54:00.684Z,8.87
2019-05-09T07:56:30.913Z,6.97
2019-05-09T07:59:01.156Z,8.60
2019-05-09T08:01:31.536Z,8.13
2019-05-09T08:04:01.771Z,7.67
2019-05-09T08:06:32.131Z,6.03
2019-05-09T08:09:02.410Z,7.03
2019-05-09T08:11:32.603Z,10.50
2019-05-09T08:14:03.055Z,6.10
2019-05-09T08:16:33.350Z,6.00
2019-05-09T08:19:03.601Z,6.43
2019-05-09T08:21:33.921Z,5.33
2019-05-09T08:24:04.141Z,6.57
2019-05-09T08:26:34.292Z,5.27
2019-05-09T08:29:04.652Z,6.00
2019-05-09T08:31:34.784Z,7.30
2019-05-09T08:34:05.069Z,5.23
2019-05-09T08:36:35.150Z,6.30
2019-05-09T08:39:08.449Z,6.87
2019-05-09T08:41:38.731Z,5.53
2019-05-09T08:44:09.288Z,6.67
2019-05-09T08:46:39.528Z,5.37
2019-05-09T08:49:09.906Z,5.97
2019-05-09T08:52:09.192Z,9.50
2019-05-09T08:54:41.858Z,8.30
2019-05-09T08:57:12.234Z,7.57
2019-05-09T08:59:42.465Z,5.67
2019-05-09T09:02:16.523Z,5.47
2019-05-09T09:04:44.587Z,8.50
2019-05-09T09:07:14.805Z,7.90
2019-05-09T09:09:45.031Z,5.70
2019-05-09T09:12:27.140Z,7.83
2019-05-09T09:14:47.796Z,7.53
2019-05-09T09:17:18.894Z,5.25
2019-05-09T09:19:49.209Z,5.30
2019-05-09T09:22:19.428Z,8.48
2019-05-09T09:24:49.655Z,6.50
2019-05-09T09:27:19.973Z,5.80
2019-05-09T09:29:50.188Z,7.47
2019-05-09T09:32:20.426Z,5.53
2019-05-09T09:34:50.629Z,5.57
2019-05-09T09:37:20.732Z,6.40
2019-05-09T09:39:50.887Z,6.33
2019-05-09T09:42:21.237Z,7.15
2019-05-09T09:44:51.448Z,7.10
2019-05-09T09:47:23.375Z,5.30
2019-05-09T09:49:55.133Z,6.37
2019-05-09T09:52:25.545Z,4.40
2019-05-09T09:54:58.079Z,6.33
2019-05-09T09:57:28.867Z,6.43
2019-05-09T10:00:18.056Z,4.83
2019-05-09T10:02:48.358Z,6.10
2019-05-09T10:05:18.613Z,5.45
2019-05-09T10:07:48.738Z,6.23
2019-05-09T10:10:36.574Z,7.00
2019-05-09T10:13:10.489Z,6.00
2019-05-09T10:15:58.704Z,6.80
2019-05-09T10:18:50.021Z,5.23
2019-05-09T10:21:27.667Z,6.90
2019-05-09T10:23:57.906Z,6.87
2019-05-09T10:26:28.485Z,8.50
2019-05-09T10:28:58.769Z,7.50
2019-05-09T10:31:29.101Z,5.80
2019-05-09T10:33:59.230Z,4.07
2019-05-09T10:36:29.487Z,5.73
2019-05-09T10:38:59.709Z,5.13
2019-05-09T10:41:29.908Z,5.97
2019-05-09T10:44:17.868Z,5.93
2019-05-09T10:46:57.765Z,6.50
2019-05-09T10:49:24.399Z,4.90
2019-05-09T10:51:54.592Z,3.97
2019-05-09T10:54:24.689Z,5.37
2019-05-09T10:56:54.812Z,4.90
2019-05-09T10:59:24.932Z,5.37
2019-05-09T11:01:57.720Z,5.90
2019-05-09T11:04:28.777Z,8.63
2019-05-09T11:06:59.048Z,6.03
2019-05-09T11:09:29.360Z,5.63
2019-05-09T11:12:01.213Z,5.30
2019-05-09T11:14:36.847Z,8.20
2019-05-09T11:17:10.659Z,5.27
2019-05-09T11:19:35.607Z,4.60
2019-05-09T11:22:08.036Z,5.60
2019-05-09T11:24:45.703Z,6.67
2019-05-09T11:27:10.495Z,5.13
2019-05-09T11:29:40.637Z,4.93
2019-05-09T11:32:10.782Z,5.08
2019-05-09T11:34:41.122Z,7.43
2019-05-09T11:37:11.288Z,3.27
2019-05-09T11:39:42.381Z,5.27
2019-05-09T11:42:12.672Z,5.27
2019-05-09T11:44:42.848Z,6.57
2019-05-09T11:47:31.450Z,6.03
2019-05-09T11:49:47.911Z,5.67
2019-05-09T11:52:18.331Z,5.13
2019-05-09T11:54:48.721Z,5.87
2019-05-09T11:57:19.279Z,4.50
2019-05-09T11:59:49.493Z,5.53
2019-05-09T12:02:19.680Z,6.03
2019-05-09T12:04:49.775Z,6.00
2019-05-09T12:07:19.892Z,4.00
2019-05-09T12:09:50.039Z,5.37
2019-05-09T12:12:20.263Z,4.40
2019-05-09T12:14:50.519Z,4.80
2019-05-09T12:17:20.633Z,6.40
2019-05-09T12:19:50.759Z,6.70
2019-05-09T12:22:20.902Z,6.65
2019-05-09T12:24:53.876Z,4.60
2019-05-09T12:27:22.744Z,7.62
2019-05-09T12:29:52.821Z,5.97
2019-05-09T12:32:22.995Z,6.12
2019-05-09T12:34:53.108Z,6.17
2019-05-09T12:37:23.284Z,4.63
2019-05-09T12:39:53.619Z,8.93
2019-05-09T12:42:23.760Z,4.90
2019-05-09T12:44:53.912Z,4.60
2019-05-09T12:47:24.163Z,6.40
2019-05-09T12:49:54.218Z,4.50
2019-05-09T12:52:24.336Z,4.92
2019-05-09T12:54:54.524Z,4.00
2019-05-09T12:57:24.671Z,4.47
2019-05-09T12:59:54.729Z,6.23
2019-05-09T13:02:24.897Z,4.33
2019-05-09T13:04:54.961Z,5.17
2019-05-09T13:07:25.195Z,6.43
2019-05-09T13:09:58.073Z,5.50
2019-05-09T13:12:29.124Z,6.30
2019-05-09T13:14:59.273Z,5.83
2019-05-09T13:17:48.259Z,6.13
2019-05-09T13:20:19.139Z,5.50
2019-05-09T13:22:49.463Z,7.83
2019-05-09T13:25:19.624Z,4.77
2019-05-09T13:27:52.735Z,3.23
2019-05-09T13:30:21.889Z,4.23
2019-05-09T13:32:52.198Z,3.83
2019-05-09T13:35:22.363Z,4.33
2019-05-09T13:37:52.604Z,4.93
2019-05-09T13:40:22.937Z,6.83
2019-05-09T13:42:53.233Z,5.17
2019-05-09T13:45:23.516Z,5.30
2019-05-09T13:47:53.739Z,5.40
2019-05-09T13:50:24.055Z,5.87
2019-05-09T13:52:54.140Z,6.00
2019-05-09T13:55:24.362Z,4.72
2019-05-09T13:57:54.815Z,4.77
2019-05-09T14:00:25.042Z,6.07
2019-05-09T14:02:55.205Z,4.80
2019-05-09T14:05:25.493Z,5.40
2019-05-09T14:08:01.364Z,2.87
2019-05-09T14:10:28.989Z,4.92
2019-05-09T14:13:06.871Z,6.70
2019-05-09T14:15:31.354Z,5.30
2019-05-09T14:18:01.575Z,4.57
2019-05-09T14:20:31.723Z,5.97
2019-05-09T14:23:01.852Z,6.60
2019-05-09T14:25:32.149Z,7.27
2019-05-09T14:28:02.529Z,5.90
2019-05-09T14:30:32.990Z,4.25
2019-05-09T14:33:03.229Z,4.70
2019-05-09T14:35:33.529Z,4.53
2019-05-09T14:38:04.179Z,6.47
2019-05-09T14:40:34.408Z,5.00
2019-05-09T14:43:04.766Z,6.23
2019-05-09T14:45:35.036Z,8.00
2019-05-09T14:48:07.820Z,4.90
2019-05-09T14:50:38.165Z,8.13
2019-05-09T14:53:08.846Z,5.43
2019-05-09T14:55:42.824Z,7.60
2019-05-09T14:58:11.133Z,6.83
2019-05-09T15:00:41.386Z,8.13
2019-05-09T15:03:11.624Z,6.75
2019-05-09T15:05:41.711Z,6.85
2019-05-09T15:08:11.864Z,7.72
2019-05-09T15:10:42.200Z,7.07
2019-05-09T15:13:12.468Z,4.75
2019-05-09T15:15:42.751Z,7.57
2019-05-09T15:18:13.072Z,6.47
2019-05-09T15:20:43.425Z,7.80
2019-05-09T15:23:13.627Z,6.40
2019-05-09T15:25:43.912Z,5.13
2019-05-09T15:28:14.148Z,6.20
2019-05-09T15:30:44.635Z,5.23
2019-05-09T15:33:14.794Z,4.90
2019-05-09T15:35:45.086Z,6.87
2019-05-09T15:38:17.945Z,5.92
2019-05-09T15:40:48.160Z,3.53
2019-05-09T15:43:18.758Z,2.97
2019-05-09T15:45:58.230Z,3.67
2019-05-09T15:48:28.665Z,4.65
2019-05-09T15:50:59.119Z,5.80
2019-05-09T15:53:29.373Z,5.53
2019-05-09T15:55:59.606Z,5.23
2019-05-09T15:58:29.927Z,4.57
2019-05-09T16:01:00.065Z,5.13
2019-05-09T16:03:30.455Z,5.07
2019-05-09T16:06:00.723Z,7.73
2019-05-09T16:08:31.294Z,7.93
2019-05-09T16:11:01.873Z,6.13
2019-05-09T16:13:32.298Z,5.23
2019-05-09T16:16:02.903Z,5.50
2019-05-09T16:18:33.267Z,6.23
2019-05-09T16:21:03.792Z,7.20
2019-05-09T16:23:34.481Z,5.77
2019-05-09T16:26:07.294Z,8.68
2019-05-09T16:31:30.736Z,7.97
2019-05-09T16:34:01.435Z,5.87
2019-05-09T16:36:31.902Z,5.50
2019-05-09T16:39:07.639Z,6.23
2019-05-09T16:41:39.123Z,5.03
2019-05-09T16:44:09.877Z,5.20
2019-05-09T16:46:40.308Z,7.27
2019-05-09T16:49:11.860Z,10.53
2019-05-09T16:51:42.297Z,7.37
2019-05-09T16:54:12.690Z,7.15
2019-05-09T16:56:43.026Z,8.45
2019-05-09T16:59:13.293Z,8.53
2019-05-09T17:01:49.304Z,8.60
2019-05-09T17:04:19.249Z,7.53
2019-05-09T17:06:49.724Z,8.40
2019-05-09T17:09:20.404Z,7.67
2019-05-09T17:11:50.717Z,10.33
2019-05-09T17:14:21.097Z,10.40
2019-05-09T17:16:52.900Z,10.27
2019-05-09T17:19:23.357Z,8.98
2019-05-09T17:22:07.713Z,11.87
2019-05-09T17:24:40.051Z,8.90
2019-05-09T17:27:10.364Z,12.73
2019-05-09T17:29:40.725Z,10.43
2019-05-09T17:32:11.380Z,10.03
2019-05-09T17:34:42.358Z,10.57
2019-05-09T17:37:48.003Z,11.05
2019-05-09T17:40:19.281Z,7.70
2019-05-09T17:42:49.776Z,8.77
2019-05-09T17:47:58.851Z,5.93
2019-05-09T17:50:29.227Z,5.80
2019-05-09T17:52:59.968Z,6.77
2019-05-09T17:55:30.691Z,5.40
2019-05-09T17:58:01.430Z,4.60
2019-05-09T18:00:32.049Z,4.13
2019-05-09T18:03:02.582Z,7.30
2019-05-09T18:05:35.865Z,6.67
2019-05-09T18:08:07.861Z,4.57
2019-05-09T18:10:38.212Z,4.77
2019-05-09T18:13:08.972Z,4.97
2019-05-09T18:15:39.591Z,5.23
2019-05-09T18:18:10.230Z,6.07
2019-05-09T18:20:41.138Z,5.25
2019-05-09T18:23:12.615Z,4.80
2019-05-09T18:25:43.176Z,6.47
2019-05-09T18:28:13.756Z,6.70
2019-05-09T18:33:22.053Z,6.93
2019-05-09T18:35:52.556Z,5.80
2019-05-09T18:38:31.387Z,5.90
2019-05-09T18:41:01.981Z,9.23
2019-05-09T18:43:32.518Z,7.57
2019-05-09T18:46:03.058Z,7.93
2019-05-09T18:48:34.013Z,11.33
2019-05-09T18:51:04.535Z,7.13
2019-05-09T18:53:35.217Z,6.63
2019-05-09T18:56:05.704Z,9.87
2019-05-09T18:58:36.642Z,6.40
2019-05-09T19:01:07.362Z,7.03
2019-05-09T19:03:38.060Z,8.67
2019-05-09T19:06:08.502Z,6.53
2019-05-09T19:08:40.210Z,7.40
2019-05-09T19:11:12.103Z,4.93
2019-05-09T19:13:42.582Z,5.70
2019-05-09T19:16:35.681Z,7.33
2019-05-09T19:19:22.594Z,5.07
2019-05-09T19:21:56.339Z,7.40
2019-05-09T19:24:26.847Z,5.37
2019-05-09T19:26:57.267Z,5.83
2019-05-09T19:29:27.637Z,6.20
2019-05-09T19:32:00.943Z,7.23
2019-05-09T19:34:31.348Z,6.07
2019-05-09T19:37:01.789Z,4.80
2019-05-09T19:39:32.412Z,7.17
2019-05-09T19:42:02.889Z,7.95
2019-05-09T19:44:33.412Z,7.70
2019-05-09T19:47:03.975Z,8.13
2019-05-09T19:49:34.621Z,9.50
2019-05-09T19:52:05.552Z,6.20
2019-05-09T19:54:36.233Z,10.40
2019-05-09T19:57:07.822Z,7.87
2019-05-09T19:59:38.290Z,9.03
2019-05-09T20:02:08.988Z,6.47
2019-05-09T20:04:39.450Z,6.03
2019-05-09T20:07:09.925Z,7.43
2019-05-09T20:09:52.115Z,8.03
2019-05-09T20:12:32.421Z,7.53
2019-05-09T20:15:03.031Z,7.50
2019-05-09T20:17:33.594Z,9.20
2019-05-09T20:20:04.211Z,9.33
2019-05-09T20:22:35.266Z,9.47
2019-05-09T20:25:06.150Z,12.47
2019-05-09T20:27:36.714Z,9.33
2019-05-09T20:30:08.046Z,10.93
2019-05-09T20:32:38.560Z,13.50
2019-05-09T20:35:11.007Z,13.35
2019-05-09T20:37:41.666Z,16.23
2019-05-09T20:40:12.756Z,12.80
2019-05-09T20:42:43.534Z,13.93
2019-05-09T20:45:14.509Z,16.20
2019-05-09T20:47:46.107Z,17.03
2019-05-09T20:50:17.270Z,19.75
2019-05-09T20:52:48.887Z,15.50
2019-05-09T20:55:19.527Z,19.05
2019-05-09T20:57:52.121Z,25.15
2019-05-09T21:03:15.599Z,23.37
2019-05-09T21:05:46.267Z,20.13
2019-05-09T21:08:16.732Z,21.23
2019-05-09T21:10:47.627Z,16.05
2019-05-09T21:13:18.374Z,22.27
2019-05-09T21:15:49.249Z,21.17
2019-05-09T21:18:19.956Z,22.80
2019-05-09T21:20:51.822Z,21.57
2019-05-09T21:23:24.859Z,19.77
2019-05-09T21:25:54.481Z,19.87
2019-05-09T21:28:25.043Z,21.17
2019-05-09T21:30:55.493Z,21.43
2019-05-09T21:33:25.965Z,16.57
2019-05-09T21:35:56.212Z,22.37
2019-05-09T21:38:26.410Z,25.20
2019-05-09T21:43:27.793Z,22.10
2019-05-09T21:45:58.030Z,21.60
2019-05-09T21:48:28.309Z,16.40
2019-05-09T21:50:58.626Z,22.43
2019-05-09T21:53:40.315Z,21.75
2019-05-09T21:56:00.914Z,22.57
2019-05-09T21:58:31.207Z,23.90
2019-05-09T22:01:01.994Z,20.53
2019-05-09T22:03:35.124Z,21.40
2019-05-09T22:06:05.766Z,20.87
2019-05-09T22:08:36.635Z,22.53
2019-05-09T22:11:07.140Z,20.70
2019-05-09T22:13:37.982Z,21.10
2019-05-09T22:16:09.020Z,21.68
2019-05-09T22:18:39.930Z,25.30
2019-05-09T22:21:12.322Z,20.60
2019-05-09T22:23:55.349Z,29.20
2019-05-09T22:26:16.352Z,28.87
2019-05-09T22:28:46.772Z,26.13
2019-05-09T22:31:17.038Z,21.12
2019-05-09T22:33:47.235Z,26.03
2019-05-09T22:36:17.497Z,25.68
2019-05-09T22:38:47.755Z,27.48
2019-05-09T22:41:18.055Z,27.17
2019-05-09T22:43:48.349Z,24.17
2019-05-09T22:46:18.649Z,30.00
2019-05-09T22:48:48.927Z,26.67
2019-05-09T22:51:19.219Z,30.87
2019-05-09T22:53:49.527Z,31.33
2019-05-09T22:56:19.820Z,29.80
2019-05-09T22:58:50.246Z,27.00
2019-05-09T23:01:20.545Z,32.53
2019-05-09T23:03:50.791Z,29.00
2019-05-09T23:06:21.343Z,30.30
2019-05-09T23:08:51.757Z,29.70
2019-05-09T23:11:22.090Z,30.87
2019-05-09T23:13:52.356Z,31.33
2019-05-09T23:16:28.523Z,33.18
2019-05-09T23:18:58.752Z,32.93
2019-05-09T23:21:29.736Z,32.67
2019-05-09T23:24:10.815Z,28.90
2019-05-09T23:26:41.036Z,29.73
2019-05-09T23:29:11.194Z,29.20
2019-05-09T23:31:52.853Z,33.47
2019-05-09T23:34:23.111Z,29.03
2019-05-09T23:36:53.300Z,30.43
2019-05-09T23:39:25.526Z,30.33
2019-05-09T23:41:55.856Z,27.07
2019-05-09T23:44:25.999Z,30.63
2019-05-09T23:46:56.207Z,30.53
2019-05-09T23:49:26.279Z,30.93
2019-05-09T23:51:58.790Z,29.10
2019-05-09T23:54:47.653Z,28.53
2019-05-09T23:57:35.686Z,30.05
